sensor_id;sensor_type;location;lat;lon;timestamp;P1;durP1;ratioP1;P2;durP2;ratioP2
27558;SDS011;15002;52.028;5.670;2023-02-19T00:00:58;39.55;;;19.38;;
27558;SDS011;15002;52.028;5.670;2023-02-19T00:03:25;38.10;;;18.00;;
27558;SDS011;15002;52.028;5.670;2023-02-19T00:05:51;43.13;;;19.52;;
27558;SDS011;15002;52.028;5.670;2023-02-19T00:08:17;44.25;;;18.15;;
27558;SDS011;15002;52.028;5.670;2023-02-19T00:10:43;37.55;;;18.25;;
27558;SDS011;15002;52.028;5.670;2023-02-19T00:13:08;40.70;;;18.15;;
27558;SDS011;15002;52.028;5.670;2023-02-19T00:15:34;34.92;;;16.65;;
27558;SDS011;15002;52.028;5.670;2023-02-19T00:18:00;36.70;;;17.33;;
27558;SDS011;15002;52.028;5.670;2023-02-19T00:20:25;36.97;;;16.55;;
27558;SDS011;15002;52.028;5.670;2023-02-19T00:22:51;28.77;;;15.75;;
27558;SDS011;15002;52.028;5.670;2023-02-19T00:25:16;35.13;;;15.43;;
27558;SDS011;15002;52.028;5.670;2023-02-19T00:27:42;32.42;;;15.10;;
27558;SDS011;15002;52.028;5.670;2023-02-19T00:30:08;30.65;;;15.50;;
27558;SDS011;15002;52.028;5.670;2023-02-19T00:32:34;28.95;;;15.02;;
27558;SDS011;15002;52.028;5.670;2023-02-19T00:34:59;35.70;;;15.73;;
27558;SDS011;15002;52.028;5.670;2023-02-19T00:37:25;30.98;;;15.82;;
27558;SDS011;15002;52.028;5.670;2023-02-19T00:39:50;27.88;;;14.75;;
27558;SDS011;15002;52.028;5.670;2023-02-19T00:42:16;25.95;;;14.98;;
27558;SDS011;15002;52.028;5.670;2023-02-19T00:44:42;30.95;;;14.85;;
27558;SDS011;15002;52.028;5.670;2023-02-19T00:47:07;32.80;;;14.80;;
27558;SDS011;15002;52.028;5.670;2023-02-19T00:49:33;33.92;;;15.30;;
27558;SDS011;15002;52.028;5.670;2023-02-19T00:51:58;30.00;;;14.27;;
27558;SDS011;15002;52.028;5.670;2023-02-19T00:54:24;25.88;;;13.95;;
27558;SDS011;15002;52.028;5.670;2023-02-19T00:56:50;32.28;;;14.00;;
27558;SDS011;15002;52.028;5.670;2023-02-19T00:59:15;27.60;;;13.70;;
27558;SDS011;15002;52.028;5.670;2023-02-19T01:01:42;29.63;;;12.98;;
27558;SDS011;15002;52.028;5.670;2023-02-19T01:04:11;27.88;;;13.23;;
27558;SDS011;15002;52.028;5.670;2023-02-19T01:06:37;31.38;;;13.93;;
27558;SDS011;15002;52.028;5.670;2023-02-19T01:09:03;25.42;;;12.40;;
27558;SDS011;15002;52.028;5.670;2023-02-19T01:11:29;23.88;;;12.77;;
27558;SDS011;15002;52.028;5.670;2023-02-19T01:13:58;26.25;;;13.07;;
27558;SDS011;15002;52.028;5.670;2023-02-19T01:16:25;26.73;;;14.13;;
27558;SDS011;15002;52.028;5.670;2023-02-19T01:18:51;31.55;;;14.50;;
27558;SDS011;15002;52.028;5.670;2023-02-19T01:21:22;22.40;;;12.65;;
27558;SDS011;15002;52.028;5.670;2023-02-19T01:23:50;31.25;;;13.95;;
27558;SDS011;15002;52.028;5.670;2023-02-19T01:26:18;32.30;;;15.25;;
27558;SDS011;15002;52.028;5.670;2023-02-19T01:28:45;22.70;;;13.65;;
27558;SDS011;15002;52.028;5.670;2023-02-19T01:31:13;26.67;;;12.68;;
27558;SDS011;15002;52.028;5.670;2023-02-19T01:33:47;29.17;;;13.32;;
27558;SDS011;15002;52.028;5.670;2023-02-19T01:36:15;29.52;;;12.32;;
27558;SDS011;15002;52.028;5.670;2023-02-19T01:38:41;28.40;;;11.80;;
27558;SDS011;15002;52.028;5.670;2023-02-19T01:41:09;30.73;;;11.73;;
27558;SDS011;15002;52.028;5.670;2023-02-19T01:43:56;24.55;;;11.23;;
27558;SDS011;15002;52.028;5.670;2023-02-19T01:46:32;21.25;;;10.23;;
27558;SDS011;15002;52.028;5.670;2023-02-19T01:49:13;36.55;;;11.10;;
27558;SDS011;15002;52.028;5.670;2023-02-19T01:51:45;20.52;;;9.80;;
27558;SDS011;15002;52.028;5.670;2023-02-19T01:54:14;25.30;;;10.65;;
27558;SDS011;15002;52.028;5.670;2023-02-19T01:59:11;27.58;;;9.68;;
27558;SDS011;15002;52.028;5.670;2023-02-19T02:01:37;19.23;;;9.07;;
27558;SDS011;15002;52.028;5.670;2023-02-19T02:04:04;20.02;;;9.32;;
27558;SDS011;15002;52.028;5.670;2023-02-19T02:06:51;21.20;;;9.32;;
27558;SDS011;15002;52.028;5.670;2023-02-19T02:09:19;23.05;;;8.95;;
27558;SDS011;15002;52.028;5.670;2023-02-19T02:12:04;21.33;;;10.00;;
27558;SDS011;15002;52.028;5.670;2023-02-19T02:14:32;21.45;;;9.25;;
27558;SDS011;15002;52.028;5.670;2023-02-19T02:17:19;16.70;;;8.90;;
27558;SDS011;15002;52.028;5.670;2023-02-19T02:25:57;14.65;;;7.05;;
27558;SDS011;15002;52.028;5.670;2023-02-19T02:31:29;20.95;;;7.85;;
27558;SDS011;15002;52.028;5.670;2023-02-19T02:34:14;16.63;;;7.00;;
27558;SDS011;15002;52.028;5.670;2023-02-19T02:36:56;19.88;;;7.55;;
27558;SDS011;15002;52.028;5.670;2023-02-19T02:39:24;23.10;;;8.30;;
27558;SDS011;15002;52.028;5.670;2023-02-19T02:41:56;21.38;;;7.25;;
27558;SDS011;15002;52.028;5.670;2023-02-19T02:44:41;18.38;;;7.25;;
27558;SDS011;15002;52.028;5.670;2023-02-19T02:47:29;13.40;;;6.00;;
27558;SDS011;15002;52.028;5.670;2023-02-19T02:50:06;14.27;;;6.43;;
27558;SDS011;15002;52.028;5.670;2023-02-19T02:52:36;18.10;;;6.57;;
27558;SDS011;15002;52.028;5.670;2023-02-19T02:55:23;15.98;;;6.88;;
27558;SDS011;15002;52.028;5.670;2023-02-19T02:57:50;16.27;;;5.88;;
27558;SDS011;15002;52.028;5.670;2023-02-19T03:00:16;16.30;;;6.18;;
27558;SDS011;15002;52.028;5.670;2023-02-19T03:02:42;15.32;;;6.22;;
27558;SDS011;15002;52.028;5.670;2023-02-19T03:07:57;15.52;;;5.13;;
27558;SDS011;15002;52.028;5.670;2023-02-19T03:13:56;10.73;;;4.80;;
27558;SDS011;15002;52.028;5.670;2023-02-19T03:16:49;10.82;;;5.45;;
27558;SDS011;15002;52.028;5.670;2023-02-19T03:19:39;17.25;;;5.55;;
27558;SDS011;15002;52.028;5.670;2023-02-19T03:22:16;12.43;;;4.82;;
27558;SDS011;15002;52.028;5.670;2023-02-19T03:24:50;19.67;;;5.43;;
27558;SDS011;15002;52.028;5.670;2023-02-19T03:27:39;12.07;;;4.57;;
27558;SDS011;15002;52.028;5.670;2023-02-19T03:30:09;14.45;;;4.63;;
27558;SDS011;15002;52.028;5.670;2023-02-19T03:32:40;12.55;;;4.75;;
27558;SDS011;15002;52.028;5.670;2023-02-19T03:35:22;10.65;;;4.30;;
27558;SDS011;15002;52.028;5.670;2023-02-19T03:40:50;12.48;;;4.75;;
27558;SDS011;15002;52.028;5.670;2023-02-19T03:46:14;9.70;;;5.35;;
27558;SDS011;15002;52.028;5.670;2023-02-19T03:48:50;11.85;;;5.20;;
27558;SDS011;15002;52.028;5.670;2023-02-19T03:56:51;12.90;;;4.90;;
27558;SDS011;15002;52.028;5.670;2023-02-19T04:05:32;13.20;;;5.38;;
27558;SDS011;15002;52.028;5.670;2023-02-19T04:07:52;14.52;;;5.93;;
27558;SDS011;15002;52.028;5.670;2023-02-19T04:10:22;13.75;;;5.07;;
27558;SDS011;15002;52.028;5.670;2023-02-19T04:12:53;12.45;;;5.60;;
27558;SDS011;15002;52.028;5.670;2023-02-19T04:15:24;13.20;;;5.10;;
27558;SDS011;15002;52.028;5.670;2023-02-19T04:20:23;9.95;;;4.47;;
27558;SDS011;15002;52.028;5.670;2023-02-19T04:22:51;12.77;;;5.50;;
27558;SDS011;15002;52.028;5.670;2023-02-19T04:25:17;10.15;;;5.03;;
27558;SDS011;15002;52.028;5.670;2023-02-19T04:27:43;11.75;;;4.93;;
27558;SDS011;15002;52.028;5.670;2023-02-19T04:30:10;6.72;;;4.97;;
27558;SDS011;15002;52.028;5.670;2023-02-19T04:32:37;14.40;;;5.13;;
27558;SDS011;15002;52.028;5.670;2023-02-19T04:35:03;17.25;;;5.28;;
27558;SDS011;15002;52.028;5.670;2023-02-19T04:37:29;15.93;;;5.53;;
27558;SDS011;15002;52.028;5.670;2023-02-19T04:39:54;15.23;;;5.30;;
27558;SDS011;15002;52.028;5.670;2023-02-19T04:42:20;18.88;;;5.70;;
27558;SDS011;15002;52.028;5.670;2023-02-19T04:44:45;10.70;;;5.22;;
27558;SDS011;15002;52.028;5.670;2023-02-19T04:47:11;16.30;;;5.82;;
27558;SDS011;15002;52.028;5.670;2023-02-19T04:49:37;13.68;;;5.28;;
27558;SDS011;15002;52.028;5.670;2023-02-19T04:52:02;16.25;;;5.57;;
27558;SDS011;15002;52.028;5.670;2023-02-19T04:54:28;11.68;;;5.57;;
27558;SDS011;15002;52.028;5.670;2023-02-19T04:56:54;16.30;;;6.32;;
27558;SDS011;15002;52.028;5.670;2023-02-19T04:59:20;9.90;;;4.80;;
27558;SDS011;15002;52.028;5.670;2023-02-19T05:01:45;15.20;;;5.32;;
27558;SDS011;15002;52.028;5.670;2023-02-19T05:04:11;20.60;;;5.32;;
27558;SDS011;15002;52.028;5.670;2023-02-19T05:06:36;12.02;;;5.68;;
27558;SDS011;15002;52.028;5.670;2023-02-19T05:09:02;13.70;;;5.75;;
27558;SDS011;15002;52.028;5.670;2023-02-19T05:11:28;12.95;;;5.05;;
27558;SDS011;15002;52.028;5.670;2023-02-19T05:13:54;16.00;;;5.72;;
27558;SDS011;15002;52.028;5.670;2023-02-19T05:16:20;15.25;;;5.43;;
27558;SDS011;15002;52.028;5.670;2023-02-19T05:18:45;12.45;;;5.07;;
27558;SDS011;15002;52.028;5.670;2023-02-19T05:21:12;15.82;;;4.97;;
27558;SDS011;15002;52.028;5.670;2023-02-19T05:23:38;10.20;;;5.18;;
27558;SDS011;15002;52.028;5.670;2023-02-19T05:26:07;17.13;;;5.28;;
27558;SDS011;15002;52.028;5.670;2023-02-19T05:28:38;12.88;;;5.55;;
27558;SDS011;15002;52.028;5.670;2023-02-19T05:31:05;15.18;;;5.32;;
27558;SDS011;15002;52.028;5.670;2023-02-19T05:33:32;10.48;;;4.80;;
27558;SDS011;15002;52.028;5.670;2023-02-19T05:35:58;15.48;;;5.28;;
27558;SDS011;15002;52.028;5.670;2023-02-19T05:38:24;13.35;;;5.05;;
27558;SDS011;15002;52.028;5.670;2023-02-19T05:40:50;13.27;;;4.95;;
27558;SDS011;15002;52.028;5.670;2023-02-19T05:43:15;13.48;;;4.93;;
27558;SDS011;15002;52.028;5.670;2023-02-19T05:45:41;17.17;;;5.35;;
27558;SDS011;15002;52.028;5.670;2023-02-19T05:48:07;14.57;;;5.10;;
27558;SDS011;15002;52.028;5.670;2023-02-19T05:50:35;16.92;;;5.35;;
27558;SDS011;15002;52.028;5.670;2023-02-19T05:53:01;17.60;;;5.63;;
27558;SDS011;15002;52.028;5.670;2023-02-19T05:55:28;18.15;;;5.70;;
27558;SDS011;15002;52.028;5.670;2023-02-19T05:57:58;12.27;;;5.45;;
27558;SDS011;15002;52.028;5.670;2023-02-19T06:00:23;14.65;;;6.80;;
27558;SDS011;15002;52.028;5.670;2023-02-19T06:02:51;13.82;;;6.78;;
27558;SDS011;15002;52.028;5.670;2023-02-19T06:05:17;15.77;;;6.15;;
27558;SDS011;15002;52.028;5.670;2023-02-19T06:07:44;17.77;;;6.07;;
27558;SDS011;15002;52.028;5.670;2023-02-19T06:10:10;19.25;;;6.20;;
27558;SDS011;15002;52.028;5.670;2023-02-19T06:12:36;11.82;;;5.43;;
27558;SDS011;15002;52.028;5.670;2023-02-19T06:15:03;14.10;;;5.72;;
27558;SDS011;15002;52.028;5.670;2023-02-19T06:17:30;13.77;;;5.75;;
27558;SDS011;15002;52.028;5.670;2023-02-19T06:19:56;15.25;;;5.68;;
27558;SDS011;15002;52.028;5.670;2023-02-19T06:22:22;13.45;;;5.63;;
27558;SDS011;15002;52.028;5.670;2023-02-19T06:24:47;15.13;;;5.55;;
27558;SDS011;15002;52.028;5.670;2023-02-19T06:27:13;17.42;;;5.57;;
27558;SDS011;15002;52.028;5.670;2023-02-19T06:29:38;13.27;;;5.07;;
27558;SDS011;15002;52.028;5.670;2023-02-19T06:32:04;14.32;;;5.97;;
27558;SDS011;15002;52.028;5.670;2023-02-19T06:34:31;18.02;;;5.65;;
27558;SDS011;15002;52.028;5.670;2023-02-19T06:36:57;17.50;;;5.47;;
27558;SDS011;15002;52.028;5.670;2023-02-19T06:39:24;10.38;;;4.72;;
27558;SDS011;15002;52.028;5.670;2023-02-19T06:41:49;12.40;;;5.18;;
27558;SDS011;15002;52.028;5.670;2023-02-19T06:44:15;13.70;;;5.60;;
27558;SDS011;15002;52.028;5.670;2023-02-19T06:46:41;14.52;;;5.20;;
27558;SDS011;15002;52.028;5.670;2023-02-19T06:49:07;22.98;;;5.78;;
27558;SDS011;15002;52.028;5.670;2023-02-19T06:51:33;14.60;;;4.45;;
27558;SDS011;15002;52.028;5.670;2023-02-19T06:53:59;11.93;;;5.10;;
27558;SDS011;15002;52.028;5.670;2023-02-19T06:58:54;16.40;;;5.82;;
27558;SDS011;15002;52.028;5.670;2023-02-19T07:01:21;14.45;;;5.63;;
27558;SDS011;15002;52.028;5.670;2023-02-19T07:03:47;16.17;;;5.80;;
27558;SDS011;15002;52.028;5.670;2023-02-19T07:06:13;16.05;;;6.40;;
27558;SDS011;15002;52.028;5.670;2023-02-19T07:08:39;17.15;;;7.53;;
27558;SDS011;15002;52.028;5.670;2023-02-19T07:11:05;17.17;;;7.40;;
27558;SDS011;15002;52.028;5.670;2023-02-19T07:13:30;14.90;;;6.10;;
27558;SDS011;15002;52.028;5.670;2023-02-19T07:15:57;11.00;;;6.03;;
27558;SDS011;15002;52.028;5.670;2023-02-19T07:18:24;14.57;;;5.78;;
27558;SDS011;15002;52.028;5.670;2023-02-19T07:20:50;13.35;;;5.57;;
27558;SDS011;15002;52.028;5.670;2023-02-19T07:23:16;13.38;;;5.25;;
27558;SDS011;15002;52.028;5.670;2023-02-19T07:25:41;11.88;;;5.10;;
27558;SDS011;15002;52.028;5.670;2023-02-19T07:28:07;9.98;;;5.60;;
27558;SDS011;15002;52.028;5.670;2023-02-19T07:30:33;10.23;;;5.10;;
27558;SDS011;15002;52.028;5.670;2023-02-19T07:32:58;12.98;;;6.03;;
27558;SDS011;15002;52.028;5.670;2023-02-19T07:35:24;11.57;;;5.63;;
27558;SDS011;15002;52.028;5.670;2023-02-19T07:37:50;14.13;;;5.55;;
27558;SDS011;15002;52.028;5.670;2023-02-19T07:40:15;10.25;;;5.43;;
27558;SDS011;15002;52.028;5.670;2023-02-19T07:42:41;11.63;;;5.72;;
27558;SDS011;15002;52.028;5.670;2023-02-19T07:45:07;10.32;;;6.13;;
27558;SDS011;15002;52.028;5.670;2023-02-19T07:47:32;11.70;;;5.90;;
27558;SDS011;15002;52.028;5.670;2023-02-19T07:49:58;12.32;;;6.15;;
27558;SDS011;15002;52.028;5.670;2023-02-19T07:52:24;13.55;;;6.40;;
27558;SDS011;15002;52.028;5.670;2023-02-19T07:54:50;14.88;;;7.07;;
27558;SDS011;15002;52.028;5.670;2023-02-19T07:57:15;15.10;;;6.38;;
27558;SDS011;15002;52.028;5.670;2023-02-19T07:59:41;18.85;;;7.40;;
27558;SDS011;15002;52.028;5.670;2023-02-19T08:02:17;13.25;;;6.95;;
27558;SDS011;15002;52.028;5.670;2023-02-19T08:05:02;13.27;;;6.82;;
27558;SDS011;15002;52.028;5.670;2023-02-19T08:07:32;11.07;;;6.03;;
27558;SDS011;15002;52.028;5.670;2023-02-19T08:09:59;12.57;;;5.97;;
27558;SDS011;15002;52.028;5.670;2023-02-19T08:12:43;14.00;;;6.53;;
27558;SDS011;15002;52.028;5.670;2023-02-19T08:15:27;14.93;;;6.45;;
27558;SDS011;15002;52.028;5.670;2023-02-19T08:17:53;15.98;;;6.57;;
27558;SDS011;15002;52.028;5.670;2023-02-19T08:20:18;19.33;;;7.22;;
27558;SDS011;15002;52.028;5.670;2023-02-19T08:22:44;20.48;;;7.35;;
27558;SDS011;15002;52.028;5.670;2023-02-19T08:25:10;23.08;;;7.03;;
27558;SDS011;15002;52.028;5.670;2023-02-19T08:27:35;22.35;;;7.13;;
27558;SDS011;15002;52.028;5.670;2023-02-19T08:30:01;14.85;;;6.80;;
27558;SDS011;15002;52.028;5.670;2023-02-19T08:32:26;16.15;;;7.20;;
27558;SDS011;15002;52.028;5.670;2023-02-19T08:34:52;15.95;;;7.70;;
27558;SDS011;15002;52.028;5.670;2023-02-19T08:37:18;20.42;;;7.70;;
27558;SDS011;15002;52.028;5.670;2023-02-19T08:39:43;19.95;;;8.30;;
27558;SDS011;15002;52.028;5.670;2023-02-19T08:42:09;22.02;;;8.40;;
27558;SDS011;15002;52.028;5.670;2023-02-19T08:44:35;17.73;;;8.25;;
27558;SDS011;15002;52.028;5.670;2023-02-19T08:47:00;21.35;;;7.78;;
27558;SDS011;15002;52.028;5.670;2023-02-19T08:49:28;18.90;;;7.90;;
27558;SDS011;15002;52.028;5.670;2023-02-19T08:51:54;17.58;;;8.68;;
27558;SDS011;15002;52.028;5.670;2023-02-19T08:54:20;19.25;;;9.05;;
27558;SDS011;15002;52.028;5.670;2023-02-19T08:56:45;23.25;;;8.98;;
27558;SDS011;15002;52.028;5.670;2023-02-19T08:59:11;20.85;;;9.00;;
27558;SDS011;15002;52.028;5.670;2023-02-19T09:01:37;23.58;;;9.07;;
27558;SDS011;15002;52.028;5.670;2023-02-19T09:04:02;17.83;;;8.82;;
27558;SDS011;15002;52.028;5.670;2023-02-19T09:06:28;19.38;;;7.95;;
27558;SDS011;15002;52.028;5.670;2023-02-19T09:08:54;17.48;;;8.63;;
27558;SDS011;15002;52.028;5.670;2023-02-19T09:11:19;17.77;;;8.88;;
27558;SDS011;15002;52.028;5.670;2023-02-19T09:13:45;17.25;;;8.70;;
27558;SDS011;15002;52.028;5.670;2023-02-19T09:16:10;19.15;;;8.27;;
27558;SDS011;15002;52.028;5.670;2023-02-19T09:18:36;18.20;;;8.45;;
27558;SDS011;15002;52.028;5.670;2023-02-19T09:21:03;16.58;;;8.35;;
27558;SDS011;15002;52.028;5.670;2023-02-19T09:23:32;18.27;;;8.68;;
27558;SDS011;15002;52.028;5.670;2023-02-19T09:25:59;16.35;;;8.60;;
27558;SDS011;15002;52.028;5.670;2023-02-19T09:28:25;14.45;;;8.65;;
27558;SDS011;15002;52.028;5.670;2023-02-19T09:30:51;20.98;;;8.98;;
27558;SDS011;15002;52.028;5.670;2023-02-19T09:33:17;16.52;;;8.65;;
27558;SDS011;15002;52.028;5.670;2023-02-19T09:35:43;18.83;;;9.00;;
27558;SDS011;15002;52.028;5.670;2023-02-19T09:38:09;19.13;;;10.07;;
27558;SDS011;15002;52.028;5.670;2023-02-19T09:40:35;22.70;;;9.35;;
27558;SDS011;15002;52.028;5.670;2023-02-19T09:43:07;22.23;;;10.02;;
27558;SDS011;15002;52.028;5.670;2023-02-19T09:45:37;18.95;;;10.55;;
27558;SDS011;15002;52.028;5.670;2023-02-19T09:48:04;16.88;;;9.50;;
27558;SDS011;15002;52.028;5.670;2023-02-19T09:50:32;19.02;;;10.38;;
27558;SDS011;15002;52.028;5.670;2023-02-19T09:53:02;23.25;;;10.23;;
27558;SDS011;15002;52.028;5.670;2023-02-19T09:55:34;19.75;;;9.90;;
27558;SDS011;15002;52.028;5.670;2023-02-19T09:58:07;19.75;;;10.05;;
27558;SDS011;15002;52.028;5.670;2023-02-19T10:00:51;17.90;;;8.57;;
27558;SDS011;15002;52.028;5.670;2023-02-19T10:03:25;15.40;;;8.55;;
27558;SDS011;15002;52.028;5.670;2023-02-19T10:05:58;13.50;;;7.65;;
27558;SDS011;15002;52.028;5.670;2023-02-19T10:08:44;15.05;;;8.02;;
27558;SDS011;15002;52.028;5.670;2023-02-19T10:11:11;10.80;;;6.40;;
27558;SDS011;15002;52.028;5.670;2023-02-19T10:13:49;9.57;;;4.50;;
27558;SDS011;15002;52.028;5.670;2023-02-19T10:16:21;10.48;;;4.07;;
27558;SDS011;15002;52.028;5.670;2023-02-19T10:18:50;8.05;;;3.83;;
27558;SDS011;15002;52.028;5.670;2023-02-19T10:21:17;9.18;;;4.28;;
27558;SDS011;15002;52.028;5.670;2023-02-19T10:26:16;11.48;;;4.03;;
27558;SDS011;15002;52.028;5.670;2023-02-19T10:28:42;8.38;;;4.07;;
27558;SDS011;15002;52.028;5.670;2023-02-19T10:31:16;8.48;;;3.70;;
27558;SDS011;15002;52.028;5.670;2023-02-19T10:33:50;10.07;;;3.75;;
27558;SDS011;15002;52.028;5.670;2023-02-19T10:36:23;6.28;;;3.05;;
27558;SDS011;15002;52.028;5.670;2023-02-19T10:38:52;8.20;;;3.10;;
27558;SDS011;15002;52.028;5.670;2023-02-19T10:41:19;7.13;;;2.90;;
27558;SDS011;15002;52.028;5.670;2023-02-19T10:43:52;7.72;;;2.80;;
27558;SDS011;15002;52.028;5.670;2023-02-19T10:46:20;7.30;;;3.78;;
27558;SDS011;15002;52.028;5.670;2023-02-19T10:51:37;7.60;;;3.00;;
27558;SDS011;15002;52.028;5.670;2023-02-19T10:56:54;6.57;;;3.05;;
27558;SDS011;15002;52.028;5.670;2023-02-19T10:59:47;6.82;;;2.35;;
27558;SDS011;15002;52.028;5.670;2023-02-19T11:02:16;6.70;;;3.38;;
27558;SDS011;15002;52.028;5.670;2023-02-19T11:05:02;6.55;;;3.75;;
27558;SDS011;15002;52.028;5.670;2023-02-19T11:07:44;7.30;;;4.32;;
27558;SDS011;15002;52.028;5.670;2023-02-19T11:10:26;5.35;;;3.53;;
27558;SDS011;15002;52.028;5.670;2023-02-19T11:12:55;10.32;;;3.67;;
27558;SDS011;15002;52.028;5.670;2023-02-19T11:23:21;3.88;;;3.15;;
27558;SDS011;15002;52.028;5.670;2023-02-19T11:25:53;6.80;;;2.97;;
27558;SDS011;15002;52.028;5.670;2023-02-19T11:28:40;5.22;;;3.70;;
27558;SDS011;15002;52.028;5.670;2023-02-19T11:31:14;7.03;;;3.47;;
27558;SDS011;15002;52.028;5.670;2023-02-19T11:36:45;4.05;;;2.58;;
27558;SDS011;15002;52.028;5.670;2023-02-19T11:52:07;3.85;;;2.58;;
27558;SDS011;15002;52.028;5.670;2023-02-19T11:54:53;2.78;;;2.35;;
27558;SDS011;15002;52.028;5.670;2023-02-19T12:00:16;3.75;;;2.70;;
27558;SDS011;15002;52.028;5.670;2023-02-19T12:05:41;5.95;;;3.20;;
27558;SDS011;15002;52.028;5.670;2023-02-19T12:27:42;7.43;;;3.20;;
27558;SDS011;15002;52.028;5.670;2023-02-19T12:30:36;8.98;;;4.82;;
27558;SDS011;15002;52.028;5.670;2023-02-19T12:33:15;10.65;;;4.45;;
27558;SDS011;15002;52.028;5.670;2023-02-19T12:39:00;10.77;;;5.68;;
27558;SDS011;15002;52.028;5.670;2023-02-19T12:44:40;4.53;;;2.33;;
27558;SDS011;15002;52.028;5.670;2023-02-19T12:47:13;3.63;;;2.25;;
27558;SDS011;15002;52.028;5.670;2023-02-19T12:49:45;3.78;;;1.80;;
27558;SDS011;15002;52.028;5.670;2023-02-19T12:52:23;3.05;;;1.70;;
27558;SDS011;15002;52.028;5.670;2023-02-19T12:54:54;2.65;;;1.92;;
27558;SDS011;15002;52.028;5.670;2023-02-19T12:57:26;5.28;;;2.20;;
27558;SDS011;15002;52.028;5.670;2023-02-19T12:59:57;3.22;;;2.13;;
27558;SDS011;15002;52.028;5.670;2023-02-19T13:02:47;3.67;;;2.13;;
27558;SDS011;15002;52.028;5.670;2023-02-19T13:08:06;3.35;;;2.30;;
27558;SDS011;15002;52.028;5.670;2023-02-19T13:10:50;3.72;;;2.00;;
27558;SDS011;15002;52.028;5.670;2023-02-19T13:13:27;2.67;;;2.15;;
27558;SDS011;15002;52.028;5.670;2023-02-19T13:16:13;5.28;;;3.00;;
27558;SDS011;15002;52.028;5.670;2023-02-19T13:18:51;2.95;;;2.10;;
27558;SDS011;15002;52.028;5.670;2023-02-19T13:21:21;2.28;;;1.75;;
27558;SDS011;15002;52.028;5.670;2023-02-19T13:24:10;1.90;;;1.70;;
27558;SDS011;15002;52.028;5.670;2023-02-19T13:27:00;2.13;;;1.65;;
27558;SDS011;15002;52.028;5.670;2023-02-19T13:38:35;2.55;;;1.90;;
27558;SDS011;15002;52.028;5.670;2023-02-19T13:41:06;3.85;;;1.90;;
27558;SDS011;15002;52.028;5.670;2023-02-19T13:43:53;3.72;;;2.60;;
27558;SDS011;15002;52.028;5.670;2023-02-19T13:46:24;4.47;;;2.70;;
27558;SDS011;15002;52.028;5.670;2023-02-19T13:51:55;3.42;;;2.60;;
27558;SDS011;15002;52.028;5.670;2023-02-19T13:56:52;8.30;;;3.58;;
27558;SDS011;15002;52.028;5.670;2023-02-19T13:59:57;3.50;;;2.55;;
27558;SDS011;15002;52.028;5.670;2023-02-19T14:02:29;4.65;;;2.58;;
27558;SDS011;15002;52.028;5.670;2023-02-19T14:05:00;2.15;;;1.88;;
27558;SDS011;15002;52.028;5.670;2023-02-19T14:09:59;2.65;;;1.60;;
27558;SDS011;15002;52.028;5.670;2023-02-19T14:12:35;2.90;;;1.65;;
27558;SDS011;15002;52.028;5.670;2023-02-19T14:15:36;2.55;;;1.90;;
27558;SDS011;15002;52.028;5.670;2023-02-19T14:23:52;2.30;;;1.70;;
27558;SDS011;15002;52.028;5.670;2023-02-19T14:26:21;3.05;;;1.75;;
27558;SDS011;15002;52.028;5.670;2023-02-19T14:28:49;6.03;;;1.83;;
27558;SDS011;15002;52.028;5.670;2023-02-19T14:31:18;4.15;;;1.45;;
27558;SDS011;15002;52.028;5.670;2023-02-19T14:33:54;4.07;;;2.40;;
27558;SDS011;15002;52.028;5.670;2023-02-19T14:36:28;2.55;;;2.08;;
27558;SDS011;15002;52.028;5.670;2023-02-19T14:39:19;3.08;;;1.95;;
27558;SDS011;15002;52.028;5.670;2023-02-19T14:41:50;2.92;;;1.90;;
27558;SDS011;15002;52.028;5.670;2023-02-19T14:44:30;3.30;;;1.97;;
27558;SDS011;15002;52.028;5.670;2023-02-19T14:47:16;5.93;;;2.80;;
27558;SDS011;15002;52.028;5.670;2023-02-19T14:50:00;4.95;;;2.65;;
27558;SDS011;15002;52.028;5.670;2023-02-19T14:52:39;4.53;;;2.58;;
27558;SDS011;15002;52.028;5.670;2023-02-19T14:55:19;4.07;;;2.72;;
27558;SDS011;15002;52.028;5.670;2023-02-19T14:57:59;4.88;;;2.80;;
27558;SDS011;15002;52.028;5.670;2023-02-19T15:00:35;10.02;;;6.75;;
27558;SDS011;15002;52.028;5.670;2023-02-19T15:03:03;3.40;;;2.42;;
27558;SDS011;15002;52.028;5.670;2023-02-19T15:05:31;3.58;;;2.60;;
27558;SDS011;15002;52.028;5.670;2023-02-19T15:08:01;6.20;;;2.60;;
27558;SDS011;15002;52.028;5.670;2023-02-19T15:10:31;3.65;;;2.60;;
27558;SDS011;15002;52.028;5.670;2023-02-19T15:13:00;4.25;;;3.00;;
27558;SDS011;15002;52.028;5.670;2023-02-19T15:15:32;4.10;;;2.15;;
27558;SDS011;15002;52.028;5.670;2023-02-19T15:18:13;6.10;;;2.45;;
27558;SDS011;15002;52.028;5.670;2023-02-19T15:20:43;4.50;;;2.15;;
27558;SDS011;15002;52.028;5.670;2023-02-19T15:23:10;2.00;;;1.80;;
27558;SDS011;15002;52.028;5.670;2023-02-19T15:25:42;3.42;;;2.00;;
27558;SDS011;15002;52.028;5.670;2023-02-19T15:28:24;3.45;;;2.15;;
27558;SDS011;15002;52.028;5.670;2023-02-19T15:33:22;2.35;;;1.60;;
27558;SDS011;15002;52.028;5.670;2023-02-19T15:35:49;2.88;;;1.98;;
27558;SDS011;15002;52.028;5.670;2023-02-19T15:38:17;4.07;;;1.90;;
27558;SDS011;15002;52.028;5.670;2023-02-19T15:40:44;1.95;;;1.63;;
27558;SDS011;15002;52.028;5.670;2023-02-19T15:43:16;3.03;;;2.03;;
27558;SDS011;15002;52.028;5.670;2023-02-19T15:46:21;2.03;;;1.60;;
27558;SDS011;15002;52.028;5.670;2023-02-19T15:48:57;2.38;;;1.45;;
27558;SDS011;15002;52.028;5.670;2023-02-19T15:51:33;1.70;;;1.15;;
27558;SDS011;15002;52.028;5.670;2023-02-19T15:54:24;3.33;;;1.50;;
27558;SDS011;15002;52.028;5.670;2023-02-19T15:56:53;3.67;;;2.17;;
27558;SDS011;15002;52.028;5.670;2023-02-19T15:59:33;2.97;;;2.17;;
27558;SDS011;15002;52.028;5.670;2023-02-19T16:02:08;2.03;;;1.67;;
27558;SDS011;15002;52.028;5.670;2023-02-19T16:04:37;4.30;;;2.38;;
27558;SDS011;15002;52.028;5.670;2023-02-19T16:07:04;3.13;;;1.85;;
27558;SDS011;15002;52.028;5.670;2023-02-19T16:09:31;3.22;;;1.70;;
27558;SDS011;15002;52.028;5.670;2023-02-19T16:12:00;3.85;;;1.88;;
27558;SDS011;15002;52.028;5.670;2023-02-19T16:14:29;2.85;;;2.08;;
27558;SDS011;15002;52.028;5.670;2023-02-19T16:17:11;3.33;;;2.40;;
27558;SDS011;15002;52.028;5.670;2023-02-19T16:19:47;3.80;;;2.05;;
27558;SDS011;15002;52.028;5.670;2023-02-19T16:22:19;2.60;;;1.65;;
27558;SDS011;15002;52.028;5.670;2023-02-19T16:24:49;2.70;;;1.83;;
27558;SDS011;15002;52.028;5.670;2023-02-19T16:30:08;2.80;;;1.75;;
27558;SDS011;15002;52.028;5.670;2023-02-19T16:32:40;3.33;;;2.08;;
27558;SDS011;15002;52.028;5.670;2023-02-19T16:37:59;3.13;;;1.77;;
27558;SDS011;15002;52.028;5.670;2023-02-19T16:45:43;3.78;;;2.10;;
27558;SDS011;15002;52.028;5.670;2023-02-19T16:48:10;3.42;;;1.80;;
27558;SDS011;15002;52.028;5.670;2023-02-19T16:50:37;2.60;;;1.98;;
27558;SDS011;15002;52.028;5.670;2023-02-19T16:53:13;2.70;;;1.67;;
27558;SDS011;15002;52.028;5.670;2023-02-19T16:55:48;2.60;;;1.95;;
27558;SDS011;15002;52.028;5.670;2023-02-19T16:58:15;3.78;;;2.20;;
27558;SDS011;15002;52.028;5.670;2023-02-19T17:00:40;3.50;;;1.98;;
27558;SDS011;15002;52.028;5.670;2023-02-19T17:03:07;3.35;;;2.20;;
27558;SDS011;15002;52.028;5.670;2023-02-19T17:05:35;4.05;;;2.33;;
27558;SDS011;15002;52.028;5.670;2023-02-19T17:08:12;4.05;;;2.35;;
27558;SDS011;15002;52.028;5.670;2023-02-19T17:10:51;4.47;;;2.83;;
27558;SDS011;15002;52.028;5.670;2023-02-19T17:13:16;4.88;;;2.88;;
27558;SDS011;15002;52.028;5.670;2023-02-19T17:15:42;4.10;;;2.80;;
27558;SDS011;15002;52.028;5.670;2023-02-19T17:18:08;5.88;;;3.17;;
27558;SDS011;15002;52.028;5.670;2023-02-19T17:20:35;4.53;;;2.97;;